Aeroporto :
LOGIN :

Iscrizione | Disclaimer

   EN    FR    IT 

 










Sommario :    VFR   VFR Marginale   IFR   IFR Intensivo   IFR Molto Intensivo
Visibilità : 
Base nubi : 
>= 8 km
>= 3000ft
5 / 8 km
1000 / 3000 ft
1500m / 5 km
500 / 1000 ft
800 / 1500m
200 / 500 ft
< 800m
< 200 ft
Simboli :   Temporali  Nebbia  Neve Forte  Precipitazioni Forti  Vento > 20 kt
SIGMETs :   Varie  Temporali  Ghiacco  Turbolenza  Onda orograficha  Ceneri Vulcaniche







- Altitudine del aeroporto : 6 ft
- Codice IATA : PSA


LIRP - Galileo Galilei Pisa

ULTIMO METAR :
  • 252115Z 12006KT CAVOK 24/20 Q1021 NOSIG

METARs OBSOLETI :
  • 252045Z 16003KT CAVOK 24/20 Q1021 NOSIG
  • 252015Z 22002KT CAVOK 25/20 Q1020 NOSIG
  • 251945Z VRB01KT CAVOK 27/20 Q1020 NOSIG
  • 251915Z 33004KT CAVOK 27/19 Q1020 NOSIG
  • 251845Z 30004KT CAVOK 28/19 Q1020 NOSIG
  • 251815Z 32007KT CAVOK 29/19 Q1020 NOSIG

TAF TAF LIRP
Valido dal 25 a 18 ore il 26 a 18 ore UTC


251700Z 2518/2618 30010KT CAVOK
BECMG 2519/2522 12005KT
BECMG 2610/2612 30010KT
Nessun NOTAM noto per questo aeroporto.



MetMap, La meteo Aeronautica in un colpo d'occhio ! - Copyright ORBIFLY Dicembre 2007 - Disclaimer

ORBIFLY MET'MAP TEAM :

Programmazione e sviluppo : Alexandra Zaïnal
Concezione e sviluppo : Baudouin d'Aumeries
Co-Programmazione e sviluppo : Marc-Olivier Méhu
Supporto tecnico e logistico : Manuel Goepfert
Aiuto per la traduzione : Arnaldo La Scala

Contatto : metmap@orbifly.com




FONTI E CREDITI :

   NOAA